This is the latest recevied weather packets stored in our database for station/object KK6LZB. If no packets are shown the sender has not sent any weather packets the latest 10 day(s).
| Time | Temp. | Humidity | Pressure | Rain* | Wind** | Luminosity | Snow |
|---|---|---|---|---|---|---|---|
| 1777586366 | 20.56° C | 75% | 1013.7 hPa | 0 mm | - | 662 W/m² | - |
| 1777586066 | 20.56° C | 75% | 1013.9 hPa | 0 mm | - | 639 W/m² | - |
| 1777585764 | 20.56° C | 74% | 1013.9 hPa | 0 mm | - | 327 W/m² | - |
| 1777585459 | 20° C | 77% | 1013.8 hPa | 0 mm | - | 690 W/m² | - |
| 1777585155 | 20.56° C | 74% | 1014 hPa | 0 mm | - | 648 W/m² | - |
| 1777584851 | 21.11° C | 73% | 1013.9 hPa | 0 mm | - | 616 W/m² | - |
| 1777584549 | 20.56° C | 74% | 1013.9 hPa | 0 mm | - | 679 W/m² | - |
| 1777584245 | 20.56° C | 76% | 1014.2 hPa | 0 mm | - | 660 W/m² | - |
| 1777583944 | 20° C | 76% | 1014 hPa | 0 mm | - | 649 W/m² | - |
| 1777583640 | 20.56° C | 73% | 1014.1 hPa | 0 mm | - | 389 W/m² | - |
| 1777583340 | 20.56° C | 74% | 1014 hPa | 0 mm | - | 695 W/m² | - |
| 1777583034 | 21.11° C | 72% | 1014 hPa | 0 mm | - | 670 W/m² | - |
| 1777582732 | 20° C | 75% | 1014 hPa | 0 mm | - | 692 W/m² | - |
| 1777582427 | 20° C | 75% | 1014.2 hPa | 0 mm | - | 682 W/m² | - |
| 1777582121 | 20.56° C | 72% | 1014.2 hPa | 0 mm | - | 692 W/m² | - |
| 1777581820 | 20.56° C | 71% | 1014.1 hPa | 0 mm | - | 690 W/m² | - |
| 1777581519 | 20.56° C | 71% | 1014.1 hPa | 0 mm | - | 693 W/m² | - |
| 1777581215 | 20.56° C | 72% | 1014 hPa | 0 mm | - | 699 W/m² | - |
| 1777580909 | 21.11° C | 70% | 1013.9 hPa | 0 mm | - | 702 W/m² | - |
| 1777580609 | 21.11° C | 70% | 1013.9 hPa | 0 mm | - | 700 W/m² | - |
| 1777580306 | 20.56° C | 71% | 1014 hPa | 0 mm | - | 707 W/m² | - |
| 1777580003 | 20.56° C | 70% | 1013.9 hPa | 0 mm | - | 709 W/m² | - |
| 1777579698 | 20.56° C | 72% | 1013.9 hPa | 0 mm | - | 712 W/m² | - |
| 1777579397 | 20.56° C | 73% | 1013.9 hPa | 0 mm | - | 714 W/m² | - |
| 1777579092 | 20.56° C | 71% | 1014.1 hPa | 0 mm | - | 713 W/m² | - |
* Rain latest hour (hover to see other rain measurements)
** Current wind speed in m/s (hover to see current wind gust speed)